Time;durP1;ratioP1;P1;durP2;ratioP2;P2;SDS_P1;SDS_P2;PMS_P1;PMS_P2;Temp;Humidity;BMP_temperature;BMP_pressure;BME280_temperature;BME280_humidity;BME280_pressure;Samples;Min_cycle;Max_cycle;Signal;HPM_P1;HPM_P2
2023/05/23 05:19:32;;;;;;;25.30;6.43;;;16.40;69.70;;;;;;5533300;24;20060;-65
2023/05/23 05:21:59;;;;;;;19.73;4.53;;;16.50;72.50;;;;;;4764311;30;20063;-67
2023/05/23 05:24:26;;;;;;;13.23;3.67;;;16.70;71.70;;;;;;4771904;30;20333;-66
2023/05/23 05:26:53;;;;;;;16.90;4.47;;;16.80;70.50;;;;;;4772366;30;20059;-65
2023/05/23 05:29:18;;;;;;;35.05;6.20;;;16.80;70.00;;;;;;4772007;30;20051;-66
2023/05/23 05:31:44;;;;;;;26.73;4.28;;;17.00;71.50;;;;;;4775179;30;20093;-70
2023/05/23 05:34:11;;;;;;;21.83;4.85;;;17.00;72.30;;;;;;4775753;30;20056;-65
2023/05/23 05:36:37;;;;;;;26.58;6.30;;;17.00;70.40;;;;;;4775546;30;20383;-66
2023/05/23 05:39:03;;;;;;;18.35;5.30;;;17.00;69.20;;;;;;4776303;30;20056;-65
2023/05/23 05:41:28;;;;;;;44.28;6.07;;;17.00;69.60;;;;;;4774998;30;20093;-66
2023/05/23 05:43:54;;;;;;;62.72;9.52;;;17.00;69.80;;;;;;4773517;30;20055;-67
2023/05/23 05:46:20;;;;;;;35.75;5.55;;;17.00;69.80;;;;;;4775477;30;20399;-67
2023/05/23 05:48:46;;;;;;;28.90;6.15;;;17.00;69.40;;;;;;4775380;30;20072;-66
2023/05/23 05:51:12;;;;;;;27.90;6.07;;;17.00;68.60;;;;;;4759832;30;20143;-66
2023/05/23 05:53:37;;;;;;;28.05;5.13;;;17.10;66.50;;;;;;4759255;30;20556;-65
2023/05/23 05:56:03;;;;;;;23.38;4.45;;;17.00;66.60;;;;;;4775135;30;20124;-67
2023/05/23 05:58:29;;;;;;;22.05;4.78;;;17.00;66.60;;;;;;4775623;30;20059;-67
2023/05/23 06:00:55;;;;;;;34.70;5.32;;;17.00;66.70;;;;;;4775284;30;20421;-67
2023/05/23 06:03:22;;;;;;;23.27;4.05;;;16.90;66.90;;;;;;4775516;30;20516;-65
2023/05/23 06:05:47;;;;;;;18.38;3.78;;;16.90;67.00;;;;;;4775426;30;20056;-66
2023/05/23 06:08:13;;;;;;;15.38;4.05;;;16.90;66.90;;;;;;4775069;30;20058;-66
2023/05/23 06:10:39;;;;;;;30.33;5.20;;;16.90;67.10;;;;;;4774465;30;20062;-66
2023/05/23 06:13:05;;;;;;;22.05;4.78;;;16.90;67.50;;;;;;4774449;30;20051;-66
2023/05/23 06:15:30;;;;;;;18.10;4.60;;;16.90;67.40;;;;;;4775390;30;20109;-66
2023/05/23 06:17:56;;;;;;;17.73;4.88;;;16.90;67.40;;;;;;4775071;30;20404;-66
2023/05/23 06:20:22;;;;;;;21.35;4.95;;;16.90;67.50;;;;;;4774468;30;20067;-66
2023/05/23 06:22:47;;;;;;;18.25;4.20;;;16.90;67.60;;;;;;4774927;30;20063;-67
2023/05/23 06:25:13;;;;;;;16.58;3.92;;;16.90;67.80;;;;;;4767603;30;20087;-66
2023/05/23 06:27:39;;;;;;;15.88;4.43;;;17.00;67.90;;;;;;4756851;30;20060;-67
2023/05/23 06:30:06;;;;;;;17.67;4.20;;;17.00;68.00;;;;;;4768306;30;20091;-68
2023/05/23 06:32:35;;;;;;;19.85;4.10;;;17.00;68.00;;;;;;4774554;30;20055;-66
2023/05/23 06:35:01;;;;;;;18.25;4.20;;;17.00;67.90;;;;;;4774813;30;20109;-66
2023/05/23 06:37:27;;;;;;;16.48;3.80;;;17.00;67.90;;;;;;4751784;30;20959;-68
2023/05/23 06:39:52;;;;;;;18.55;4.32;;;17.00;68.10;;;;;;4753297;30;20134;-67
2023/05/23 06:42:18;;;;;;;19.63;4.07;;;17.00;68.00;;;;;;4771379;30;20504;-66
2023/05/23 06:44:44;;;;;;;17.05;4.00;;;17.00;68.00;;;;;;4768409;30;20088;-68
2023/05/23 06:47:10;;;;;;;18.63;4.10;;;17.00;68.00;;;;;;4756178;30;20403;-70
2023/05/23 06:49:35;;;;;;;14.13;4.07;;;17.10;68.00;;;;;;4756881;30;20052;-73
2023/05/23 06:52:01;;;;;;;17.55;4.60;;;17.00;68.00;;;;;;4757140;30;20048;-68
2023/05/23 06:54:27;;;;;;;15.52;3.92;;;17.00;67.80;;;;;;4756375;30;20077;-66
2023/05/23 06:56:52;;;;;;;21.17;3.65;;;17.10;67.50;;;;;;4756400;30;20056;-67
2023/05/23 06:59:18;;;;;;;16.92;3.85;;;17.10;67.40;;;;;;4765011;30;20055;-67
2023/05/23 07:01:44;;;;;;;14.98;4.32;;;17.10;67.30;;;;;;4765608;30;20098;-68
2023/05/23 07:04:11;;;;;;;18.35;4.57;;;17.10;67.20;;;;;;4756552;30;20052;-67
2023/05/23 07:06:38;;;;;;;24.15;4.47;;;17.10;67.20;;;;;;4756544;30;20052;-67
2023/05/23 07:09:04;;;;;;;16.23;4.07;;;17.00;67.30;;;;;;4754896;30;20056;-66
2023/05/23 07:11:30;;;;;;;12.40;3.70;;;17.10;67.40;;;;;;4756214;30;20486;-67
2023/05/23 07:13:55;;;;;;;19.65;4.97;;;17.10;67.30;;;;;;4741111;30;20160;-67
2023/05/23 07:16:21;;;;;;;14.90;3.97;;;17.10;67.30;;;;;;4756556;30;20087;-68
2023/05/23 07:18:47;;;;;;;21.58;4.78;;;17.10;67.30;;;;;;4742906;30;20766;-68
2023/05/23 07:21:12;;;;;;;17.30;4.47;;;17.10;67.30;;;;;;4772953;30;20055;-68
2023/05/23 07:23:40;;;;;;;17.42;3.97;;;17.10;67.30;;;;;;4773500;30;20063;-67
2023/05/23 07:26:08;;;;;;;18.15;4.20;;;17.10;67.40;;;;;;4773657;30;20490;-67
2023/05/23 07:28:34;;;;;;;14.60;4.13;;;17.10;67.50;;;;;;4758218;30;20456;-67
2023/05/23 07:31:00;;;;;;;17.63;4.55;;;17.10;67.40;;;;;;4766044;30;20062;-68
2023/05/23 07:33:26;;;;;;;17.15;4.47;;;17.10;67.10;;;;;;4745998;30;20056;-67
2023/05/23 07:35:52;;;;;;;15.60;3.92;;;17.10;67.20;;;;;;4752798;30;20060;-67
2023/05/23 07:38:18;;;;;;;14.70;4.07;;;17.10;67.20;;;;;;4740490;30;20063;-67
2023/05/23 07:40:43;;;;;;;15.70;4.07;;;17.10;67.30;;;;;;4752804;30;20065;-68
2023/05/23 07:43:09;;;;;;;16.40;3.72;;;17.10;67.40;;;;;;4759136;30;20056;-67
2023/05/23 07:45:35;;;;;;;15.48;3.72;;;17.10;68.10;;;;;;4759686;30;20045;-65
2023/05/23 07:48:01;;;;;;;15.57;4.10;;;17.10;68.40;;;;;;4741666;30;20492;-65
2023/05/23 07:50:26;;;;;;;15.80;4.40;;;17.20;68.30;;;;;;4748523;30;20056;-67
2023/05/23 07:52:52;;;;;;;14.40;3.70;;;17.30;69.00;;;;;;4754829;30;20095;-65
2023/05/23 07:55:18;;;;;;;12.88;3.88;;;17.30;68.50;;;;;;4755278;30;20048;-65
2023/05/23 07:57:44;;;;;;;14.80;3.47;;;17.40;68.70;;;;;;4755523;30;20060;-66
2023/05/23 08:00:11;;;;;;;10.52;3.13;;;17.50;69.00;;;;;;4752133;30;20375;-69
2023/05/23 08:02:37;;;;;;;14.68;3.33;;;17.50;68.20;;;;;;4753079;30;20123;-68
2023/05/23 08:05:03;;;;;;;17.02;3.67;;;17.50;67.50;;;;;;4755174;30;20499;-65
2023/05/23 08:07:28;;;;;;;11.05;3.55;;;17.50;67.70;;;;;;4754927;30;20064;-66
2023/05/23 08:09:54;;;;;;;11.15;3.22;;;17.50;68.00;;;;;;4754783;30;20140;-64
2023/05/23 08:12:23;;;;;;;11.73;3.72;;;17.50;68.40;;;;;;4747094;30;20397;-66
2023/05/23 08:14:49;;;;;;;11.65;3.90;;;17.60;68.80;;;;;;4722134;30;20056;-66
2023/05/23 08:17:15;;;;;;;10.40;3.45;;;17.70;68.70;;;;;;4737677;30;20512;-66
2023/05/23 08:19:40;;;;;;;10.02;3.10;;;17.70;68.60;;;;;;4738724;30;20072;-67
2023/05/23 08:22:06;;;;;;;11.02;3.53;;;17.80;68.70;;;;;;4754643;30;20074;-66
2023/05/23 08:24:33;;;;;;;9.65;3.20;;;17.80;68.80;;;;;;4754835;30;20118;-64
2023/05/23 08:26:59;;;;;;;10.23;3.17;;;17.90;68.90;;;;;;4755064;30;20064;-66
2023/05/23 08:29:24;;;;;;;10.63;3.58;;;17.90;68.70;;;;;;4753974;30;20048;-68
2023/05/23 08:31:50;;;;;;;9.70;3.42;;;17.90;69.30;;;;;;4753721;30;20106;-65
2023/05/23 08:34:16;;;;;;;10.23;2.97;;;17.90;68.60;;;;;;4754587;30;20060;-66
2023/05/23 08:36:42;;;;;;;8.88;3.42;;;18.00;68.70;;;;;;4754519;30;20096;-66
2023/05/23 08:39:08;;;;;;;9.25;2.83;;;18.00;68.60;;;;;;4764600;30;20062;-67
2023/05/23 08:41:34;;;;;;;11.93;2.95;;;18.00;68.60;;;;;;4786393;30;20062;-66
2023/05/23 08:44:00;;;;;;;10.48;2.78;;;18.00;68.70;;;;;;4769863;30;20484;-67
2023/05/23 08:46:28;;;;;;;10.68;2.80;;;18.10;68.20;;;;;;4769197;30;20405;-68
2023/05/23 08:48:55;;;;;;;9.38;2.78;;;18.10;68.00;;;;;;4769798;30;20056;-68
2023/05/23 08:51:23;;;;;;;7.95;2.75;;;18.00;67.70;;;;;;4766889;30;20073;-68
2023/05/23 08:53:50;;;;;;;12.40;3.67;;;18.00;67.50;;;;;;4770909;30;20468;-68
2023/05/23 08:56:15;;;;;;;10.27;3.35;;;18.00;67.30;;;;;;4772347;30;20059;-67
2023/05/23 08:58:42;;;;;;;12.13;3.40;;;17.90;67.10;;;;;;4766088;30;20043;-68
2023/05/23 09:01:09;;;;;;;12.48;3.00;;;17.90;67.00;;;;;;4755886;30;20071;-67
2023/05/23 09:03:36;;;;;;;16.08;3.72;;;17.90;66.50;;;;;;4772412;30;20051;-67
2023/05/23 09:06:05;;;;;;;12.60;3.30;;;17.90;66.30;;;;;;4771314;30;20212;-69
2023/05/23 09:08:31;;;;;;;12.90;3.65;;;17.80;65.80;;;;;;4768854;30;20066;-67
2023/05/23 09:10:57;;;;;;;27.10;4.45;;;17.80;65.80;;;;;;4770783;30;20052;-67
2023/05/23 09:13:24;;;;;;;22.13;4.13;;;17.80;65.50;;;;;;4771837;30;20131;-68
2023/05/23 09:15:58;;;;;;;20.60;3.65;;;17.70;65.30;;;;;;4771940;30;20047;-67
2023/05/23 09:18:36;;;;;;;16.70;4.03;;;17.70;66.10;;;;;;4771435;30;20047;-68
2023/05/23 09:21:02;;;;;;;12.82;3.40;;;17.80;64.80;;;;;;4772140;30;20437;-67
2023/05/23 09:23:32;;;;;;;15.15;4.25;;;17.70;64.50;;;;;;4771382;30;20074;-68
2023/05/23 09:26:04;;;;;;;14.02;4.20;;;17.60;63.60;;;;;;4772766;30;20322;-68
2023/05/23 09:28:32;;;;;;;12.67;3.03;;;17.60;63.30;;;;;;4772066;30;20089;-68
2023/05/23 09:31:09;;;;;;;13.55;3.63;;;17.60;64.40;;;;;;4769610;30;20055;-68
2023/05/23 09:33:49;;;;;;;13.45;3.47;;;17.60;63.70;;;;;;4764530;30;20056;-68
2023/05/23 09:36:16;;;;;;;11.65;3.00;;;17.60;63.00;;;;;;4771860;30;20059;-67
2023/05/23 09:38:45;;;;;;;13.77;3.00;;;17.60;62.60;;;;;;4770856;30;20380;-69
2023/05/23 09:41:11;;;;;;;14.57;3.97;;;17.50;61.90;;;;;;4772172;30;20044;-69
2023/05/23 09:43:49;;;;;;;9.00;2.97;;;17.50;62.60;;;;;;4771766;30;20060;-68
2023/05/23 09:46:14;;;;;;;9.48;2.83;;;17.50;63.00;;;;;;4772198;30;20493;-68
2023/05/23 09:48:50;;;;;;;11.48;2.30;;;17.50;63.30;;;;;;4771965;30;20102;-68
2023/05/23 09:51:22;;;;;;;13.05;3.35;;;17.50;63.10;;;;;;4770999;30;20495;-70
2023/05/23 09:53:48;;;;;;;12.57;3.72;;;17.50;62.90;;;;;;4771236;30;20056;-69
2023/05/23 09:56:16;;;;;;;12.18;3.05;;;17.50;62.20;;;;;;4770488;30;20175;-69
2023/05/23 09:58:45;;;;;;;10.30;3.30;;;17.50;62.90;;;;;;4770233;30;20060;-67
2023/05/23 10:01:12;;;;;;;21.88;3.60;;;17.50;63.20;;;;;;4771607;30;20470;-67
2023/05/23 10:03:48;;;;;;;13.88;2.83;;;17.50;63.30;;;;;;4771928;30;20052;-67
2023/05/23 10:06:52;;;;;;;18.15;3.17;;;17.50;63.90;;;;;;4771315;30;20052;-67
2023/05/23 10:09:20;;;;;;;13.70;3.50;;;17.60;64.30;;;;;;4771736;30;20181;-67
2023/05/23 10:12:23;;;;;;;12.70;3.45;;;17.60;64.50;;;;;;4771853;30;20056;-67
2023/05/23 10:14:56;;;;;;;17.08;3.83;;;17.60;64.50;;;;;;4771922;30;20059;-68
2023/05/23 10:17:41;;;;;;;11.77;3.20;;;17.60;64.50;;;;;;4772801;30;20060;-70
2023/05/23 10:20:15;;;;;;;29.48;4.55;;;17.60;64.40;;;;;;4774175;30;20503;-70
2023/05/23 10:22:42;;;;;;;17.25;4.00;;;17.60;64.80;;;;;;4774694;30;20059;-72
2023/05/23 10:25:12;;;;;;;9.50;2.85;;;17.70;64.70;;;;;;4774616;30;20159;-69
2023/05/23 10:27:38;;;;;;;13.15;3.25;;;17.70;64.50;;;;;;4774391;30;20129;-68
2023/05/23 10:30:06;;;;;;;14.43;3.75;;;17.70;64.40;;;;;;4774379;30;20475;-66
2023/05/23 10:32:34;;;;;;;14.30;3.38;;;17.70;64.50;;;;;;4774531;30;20531;-66
2023/05/23 10:35:37;;;;;;;15.32;3.55;;;17.70;64.40;;;;;;4774486;30;20098;-67
2023/05/23 10:38:42;;;;;;;15.60;3.92;;;17.70;64.30;;;;;;4772066;30;20056;-66
2023/05/23 10:41:27;;;;;;;15.40;3.20;;;17.70;64.40;;;;;;4773964;30;20120;-66
2023/05/23 10:43:56;;;;;;;12.15;3.13;;;17.80;64.90;;;;;;4774213;30;20138;-67
2023/05/23 10:46:22;;;;;;;13.85;3.38;;;17.70;64.80;;;;;;4773571;30;20190;-67
2023/05/23 10:48:56;;;;;;;12.77;4.10;;;17.70;64.80;;;;;;4756332;30;20052;-66
2023/05/23 10:51:23;;;;;;;17.38;3.42;;;17.70;64.50;;;;;;4756455;30;20063;-66
2023/05/23 10:53:53;;;;;;;14.65;3.58;;;17.70;64.80;;;;;;4756534;30;20088;-67
2023/05/23 10:56:22;;;;;;;17.25;3.42;;;17.70;64.60;;;;;;4756478;30;20079;-67
2023/05/23 10:58:55;;;;;;;11.15;3.15;;;17.70;64.80;;;;;;4756171;30;20052;-67
2023/05/23 11:01:22;;;;;;;10.68;3.17;;;17.70;64.80;;;;;;4756420;30;20067;-67
2023/05/23 11:03:50;;;;;;;10.07;3.55;;;17.80;65.00;;;;;;4773937;30;20195;-67
2023/05/23 11:06:43;;;;;;;14.02;3.55;;;17.70;64.90;;;;;;4773975;30;20044;-67
2023/05/23 11:09:18;;;;;;;12.20;3.30;;;17.80;65.00;;;;;;4764095;30;20095;-68
2023/05/23 11:11:58;;;;;;;12.05;3.30;;;17.70;64.90;;;;;;4773453;30;20068;-66
2023/05/23 11:14:36;;;;;;;11.95;3.10;;;17.80;64.70;;;;;;4764725;30;20476;-66
2023/05/23 11:17:11;;;;;;;21.13;4.25;;;17.80;65.00;;;;;;4767934;30;20166;-66
2023/05/23 11:19:57;;;;;;;28.63;4.95;;;17.80;65.60;;;;;;4755545;30;20068;-66
2023/05/23 11:22:27;;;;;;;19.60;3.88;;;17.80;65.40;;;;;;4769884;30;20210;-67
2023/05/23 11:24:54;;;;;;;17.70;3.63;;;17.80;65.20;;;;;;4768216;30;20055;-67
2023/05/23 11:27:28;;;;;;;17.48;3.42;;;17.70;65.00;;;;;;4773035;30;20130;-66
2023/05/23 11:30:14;;;;;;;16.70;3.35;;;17.70;64.70;;;;;;4770507;30;20059;-67
2023/05/23 11:32:41;;;;;;;21.98;4.47;;;17.70;64.00;;;;;;4773604;30;20048;-70
2023/05/23 11:35:10;;;;;;;17.95;3.58;;;17.70;64.00;;;;;;4773784;30;20047;-71
2023/05/23 11:37:38;;;;;;;16.85;4.18;;;17.70;64.70;;;;;;4773492;30;20051;-66
2023/05/23 11:40:25;;;;;;;13.80;3.10;;;17.70;64.50;;;;;;4773111;30;20440;-65
2023/05/23 11:42:52;;;;;;;12.82;3.00;;;17.60;61.60;;;;;;4773502;30;20057;-66
2023/05/23 11:45:25;;;;;;;15.07;3.13;;;17.60;61.60;;;;;;4773249;30;20540;-66
2023/05/23 11:47:51;;;;;;;13.07;3.27;;;17.50;61.60;;;;;;4773440;30;20060;-66
2023/05/23 11:50:19;;;;;;;16.15;3.15;;;17.50;62.00;;;;;;4773108;30;20054;-68
2023/05/23 11:52:50;;;;;;;10.65;3.25;;;17.50;62.00;;;;;;4772361;30;20059;-68
2023/05/23 11:55:17;;;;;;;20.90;3.63;;;17.50;62.50;;;;;;4773105;30;20056;-68
2023/05/23 11:57:43;;;;;;;21.73;3.83;;;17.50;62.20;;;;;;4756323;30;20499;-66
2023/05/23 12:00:10;;;;;;;14.90;3.60;;;17.50;62.40;;;;;;4787154;30;20055;-67
2023/05/23 12:02:39;;;;;;;18.63;3.30;;;17.60;62.50;;;;;;4772070;30;20055;-66
2023/05/23 12:05:13;;;;;;;14.40;3.00;;;17.60;62.60;;;;;;4771905;30;20073;-66
2023/05/23 12:07:43;;;;;;;11.07;2.58;;;17.60;62.80;;;;;;4773012;30;20109;-66
2023/05/23 12:10:13;;;;;;;12.07;3.17;;;17.60;63.70;;;;;;4772859;30;20173;-66
2023/05/23 12:12:40;;;;;;;12.63;3.30;;;17.60;63.20;;;;;;4771639;30;20060;-67
2023/05/23 12:15:09;;;;;;;10.95;2.88;;;17.60;63.30;;;;;;4773028;30;20056;-66
2023/05/23 12:17:38;;;;;;;12.27;3.13;;;17.60;63.50;;;;;;4772917;30;20058;-67
2023/05/23 12:20:05;;;;;;;15.88;3.83;;;17.60;63.60;;;;;;4772663;30;20071;-67
2023/05/23 12:22:31;;;;;;;10.20;2.58;;;17.60;63.80;;;;;;4771820;30;20067;-67
2023/05/23 12:24:57;;;;;;;15.15;2.75;;;17.60;63.80;;;;;;4772814;30;20055;-67
2023/05/23 12:27:33;;;;;;;10.60;2.40;;;17.60;63.70;;;;;;4772859;30;20452;-67
2023/05/23 12:30:09;;;;;;;12.68;2.75;;;17.60;63.60;;;;;;4772812;30;20055;-67
2023/05/23 12:32:40;;;;;;;10.70;2.78;;;17.60;63.90;;;;;;4772659;30;20104;-67
2023/05/23 12:35:08;;;;;;;8.45;2.40;;;17.60;63.70;;;;;;4772134;30;20058;-66
2023/05/23 12:37:34;;;;;;;12.40;2.88;;;17.60;63.90;;;;;;4772481;30;20051;-65
2023/05/23 12:40:18;;;;;;;28.17;3.92;;;17.60;63.80;;;;;;4766151;30;20063;-66
2023/05/23 12:42:55;;;;;;;22.48;3.60;;;17.60;63.50;;;;;;4758489;30;20388;-67
2023/05/23 12:45:32;;;;;;;21.75;4.18;;;17.60;63.20;;;;;;4771722;30;20102;-65
2023/05/23 12:47:58;;;;;;;18.35;3.65;;;17.70;63.10;;;;;;4772339;30;20135;-66
2023/05/23 12:50:24;;;;;;;18.08;3.25;;;17.70;62.90;;;;;;4771547;30;20151;-66
2023/05/23 12:52:51;;;;;;;13.48;3.50;;;17.70;63.10;;;;;;4768943;30;20067;-66
2023/05/23 12:55:17;;;;;;;15.82;3.20;;;17.70;63.10;;;;;;4769749;30;20091;-67
2023/05/23 12:57:43;;;;;;;12.25;2.83;;;17.70;62.50;;;;;;4755855;30;20044;-65
2023/05/23 13:00:10;;;;;;;14.52;2.95;;;17.60;62.10;;;;;;4771833;30;20124;-65
2023/05/23 13:02:36;;;;;;;22.27;3.83;;;17.70;62.30;;;;;;4772619;30;20473;-66
2023/05/23 13:05:02;;;;;;;19.90;3.53;;;17.70;62.50;;;;;;4772929;30;20051;-66
2023/05/23 13:07:28;;;;;;;35.40;6.30;;;17.70;63.00;;;;;;4772821;30;20048;-66
2023/05/23 13:09:54;;;;;;;27.08;4.32;;;17.70;63.70;;;;;;4771968;30;20091;-66
2023/05/23 13:12:19;;;;;;;37.78;6.03;;;17.70;64.00;;;;;;4741584;30;20059;-66
2023/05/23 13:14:45;;;;;;;34.70;6.25;;;17.70;64.40;;;;;;4768856;30;20051;-66
2023/05/23 13:17:11;;;;;;;32.78;5.18;;;17.70;64.70;;;;;;4771964;30;20056;-67
2023/05/23 13:19:37;;;;;;;39.22;6.43;;;17.70;64.50;;;;;;4771402;30;20494;-66
2023/05/23 13:22:09;;;;;;;25.75;5.07;;;17.80;64.70;;;;;;4772084;30;20382;-67
2023/05/23 13:24:36;;;;;;;33.65;5.82;;;17.70;64.60;;;;;;4772056;30;20138;-67
2023/05/23 13:27:03;;;;;;;34.55;6.13;;;17.70;64.20;;;;;;4772113;30;20056;-66
2023/05/23 13:29:31;;;;;;;31.60;5.70;;;17.80;64.20;;;;;;4771488;30;20074;-68
2023/05/23 13:31:57;;;;;;;37.50;5.70;;;17.80;63.10;;;;;;4772008;30;20422;-66
2023/05/23 13:34:23;;;;;;;30.88;5.53;;;17.80;61.60;;;;;;4772067;30;20147;-66
2023/05/23 13:36:52;;;;;;;19.70;3.65;;;17.70;60.30;;;;;;4772332;30;20437;-68
2023/05/23 13:39:19;;;;;;;28.33;5.22;;;17.70;58.60;;;;;;4771968;30;20083;-67
2023/05/23 13:41:46;;;;;;;25.92;4.72;;;17.60;58.60;;;;;;4772133;30;20048;-67
2023/05/23 13:44:11;;;;;;;16.10;3.67;;;17.60;57.80;;;;;;4770010;30;20076;-66
2023/05/23 13:46:38;;;;;;;11.82;2.92;;;17.50;57.20;;;;;;4762844;30;20491;-70
2023/05/23 13:49:03;;;;;;;14.20;3.55;;;17.40;56.90;;;;;;4771645;30;20133;-69
2023/05/23 13:51:31;;;;;;;11.55;3.00;;;17.30;56.30;;;;;;4772972;30;20472;-70
2023/05/23 13:53:57;;;;;;;11.45;2.72;;;17.20;55.70;;;;;;4775160;30;20062;-70
2023/05/23 13:56:23;;;;;;;11.50;2.53;;;17.20;56.00;;;;;;4775174;30;20051;-67
2023/05/23 13:58:49;;;;;;;15.57;3.75;;;17.10;56.00;;;;;;4773844;30;20051;-68
2023/05/23 14:01:16;;;;;;;11.13;2.55;;;17.10;56.30;;;;;;4768507;30;20070;-69
2023/05/23 14:03:41;;;;;;;7.22;2.20;;;17.10;56.80;;;;;;4775267;30;20066;-68
2023/05/23 14:06:07;;;;;;;10.80;2.55;;;17.10;57.00;;;;;;4773876;30;20051;-68
2023/05/23 14:08:33;;;;;;;11.63;2.50;;;17.10;57.30;;;;;;4774806;30;20349;-68
2023/05/23 14:10:59;;;;;;;9.48;2.83;;;17.20;56.70;;;;;;4774458;30;20063;-68
2023/05/23 14:13:25;;;;;;;16.60;2.55;;;17.10;56.60;;;;;;4774885;30;20449;-68
2023/05/23 14:15:52;;;;;;;8.02;1.95;;;17.20;56.10;;;;;;4775197;30;20052;-69
2023/05/23 14:18:18;;;;;;;10.50;2.55;;;17.20;55.90;;;;;;4774892;30;20062;-68
2023/05/23 14:20:43;;;;;;;7.72;2.38;;;17.20;56.00;;;;;;4773568;30;20435;-67
2023/05/23 14:23:09;;;;;;;7.63;2.00;;;17.20;56.20;;;;;;4774636;30;20430;-67
2023/05/23 14:25:35;;;;;;;7.45;2.20;;;17.20;55.80;;;;;;4774886;30;20415;-68
2023/05/23 14:28:01;;;;;;;8.15;2.38;;;17.20;56.20;;;;;;4774522;30;20071;-68
2023/05/23 14:30:27;;;;;;;10.93;2.78;;;17.20;56.10;;;;;;4774554;30;20048;-68
2023/05/23 14:32:53;;;;;;;9.60;2.60;;;17.20;55.80;;;;;;4774564;30;20048;-64
2023/05/23 14:35:21;;;;;;;11.70;2.47;;;17.30;55.90;;;;;;4774571;30;20440;-64
2023/05/23 14:37:47;;;;;;;10.30;2.17;;;17.20;56.20;;;;;;4774428;30;20129;-65
2023/05/23 14:40:14;;;;;;;11.23;3.00;;;17.20;56.90;;;;;;4774503;30;20439;-66
2023/05/23 14:42:41;;;;;;;13.45;2.97;;;17.30;57.00;;;;;;4774064;30;20075;-64
2023/05/23 14:45:07;;;;;;;11.57;2.88;;;17.30;55.90;;;;;;4774376;30;20476;-64
2023/05/23 14:47:34;;;;;;;16.13;2.70;;;17.30;56.10;;;;;;4774405;30;20063;-67
2023/05/23 14:50:00;;;;;;;11.75;3.50;;;17.30;59.60;;;;;;4769918;30;20136;-67
2023/05/23 14:52:26;;;;;;;10.73;2.28;;;17.30;59.40;;;;;;4771784;30;20063;-66
2023/05/23 14:54:52;;;;;;;12.32;2.33;;;17.30;58.90;;;;;;4771195;30;20055;-65
2023/05/23 14:57:18;;;;;;;9.27;2.22;;;17.20;59.10;;;;;;4772961;30;20047;-66
2023/05/23 14:59:45;;;;;;;10.43;2.83;;;17.20;58.90;;;;;;4774406;30;20142;-65
2023/05/23 15:02:11;;;;;;;13.65;3.38;;;17.20;57.90;;;;;;4772419;30;20093;-66
2023/05/23 15:04:37;;;;;;;12.25;2.80;;;17.30;59.50;;;;;;4773445;30;20047;-66
2023/05/23 15:07:03;;;;;;;8.65;2.30;;;17.30;59.90;;;;;;4773714;30;20167;-66
2023/05/23 15:09:28;;;;;;;10.05;3.45;;;17.30;57.20;;;;;;4774127;30;20131;-65
2023/05/23 15:11:55;;;;;;;11.82;4.00;;;17.20;59.20;;;;;;4773638;30;20464;-65
2023/05/23 15:14:21;;;;;;;9.65;3.42;;;17.20;58.10;;;;;;4773671;30;20068;-65
2023/05/23 15:16:49;;;;;;;15.65;4.32;;;17.20;57.00;;;;;;4773991;30;20051;-67
2023/05/23 15:19:15;;;;;;;29.17;5.43;;;17.20;59.10;;;;;;4787784;30;20131;-64
2023/05/23 15:21:42;;;;;;;16.27;3.30;;;17.30;59.80;;;;;;4771075;30;20391;-65
2023/05/23 15:24:08;;;;;;;15.52;4.05;;;17.20;58.30;;;;;;4773985;30;20062;-69
2023/05/23 15:26:33;;;;;;;16.92;4.00;;;17.30;58.60;;;;;;4773641;30;20130;-68
2023/05/23 15:28:59;;;;;;;15.52;3.58;;;17.30;59.20;;;;;;4772904;30;20430;-68
2023/05/23 15:31:25;;;;;;;15.85;3.40;;;17.40;59.90;;;;;;4773581;30;20102;-67
2023/05/23 15:33:51;;;;;;;15.00;2.97;;;17.40;60.50;;;;;;4773783;30;20052;-68
2023/05/23 15:36:16;;;;;;;13.45;3.55;;;17.40;60.70;;;;;;4783813;30;20460;-68
2023/05/23 15:38:43;;;;;;;21.73;4.45;;;17.40;61.20;;;;;;4791202;30;20094;-69
2023/05/23 15:41:09;;;;;;;22.10;4.05;;;17.50;61.70;;;;;;4779738;30;20142;-68
2023/05/23 15:43:35;;;;;;;19.90;4.43;;;17.50;62.20;;;;;;4768887;30;20430;-68
2023/05/23 15:46:01;;;;;;;33.60;5.65;;;17.50;62.80;;;;;;4771373;30;20063;-69
2023/05/23 15:48:27;;;;;;;30.48;4.60;;;17.60;63.30;;;;;;4773439;30;20138;-69
2023/05/23 15:50:53;;;;;;;34.25;4.47;;;17.50;63.70;;;;;;4772958;30;20464;-68
2023/05/23 15:53:19;;;;;;;26.75;4.03;;;17.60;64.40;;;;;;4772658;30;20060;-68
2023/05/23 15:55:45;;;;;;;20.35;4.13;;;17.60;64.20;;;;;;4773277;30;20051;-68
2023/05/23 15:58:11;;;;;;;15.23;3.20;;;17.50;63.60;;;;;;4773508;30;20463;-68
2023/05/23 16:00:36;;;;;;;16.17;3.40;;;17.50;62.80;;;;;;4773098;30;20132;-67
2023/05/23 16:03:02;;;;;;;12.85;2.92;;;17.50;62.40;;;;;;4772972;30;20060;-69
2023/05/23 16:05:28;;;;;;;13.90;2.92;;;17.50;62.10;;;;;;4771114;30;20066;-68
2023/05/23 16:07:54;;;;;;;14.60;3.08;;;17.50;61.90;;;;;;4773355;30;20131;-69
2023/05/23 16:10:20;;;;;;;12.77;3.17;;;17.50;61.60;;;;;;4772407;30;20051;-68
2023/05/23 16:12:45;;;;;;;22.15;3.45;;;17.50;61.50;;;;;;4771808;30;20055;-69
2023/05/23 16:15:11;;;;;;;17.40;3.88;;;17.60;61.70;;;;;;4771948;30;20043;-69
2023/05/23 16:17:37;;;;;;;16.30;3.50;;;17.60;61.80;;;;;;4772112;30;20156;-69
2023/05/23 16:20:03;;;;;;;19.52;3.13;;;17.60;62.00;;;;;;4771591;30;20062;-69
2023/05/23 16:22:30;;;;;;;25.45;3.78;;;17.60;62.10;;;;;;4769237;30;20500;-68
2023/05/23 16:24:55;;;;;;;23.60;3.45;;;17.60;62.20;;;;;;4771403;30;20131;-69
2023/05/23 16:27:24;;;;;;;25.13;3.95;;;17.60;62.20;;;;;;4772544;30;20190;-69
2023/05/23 16:29:50;;;;;;;20.95;3.40;;;17.60;62.00;;;;;;4772664;30;20065;-69
2023/05/23 16:32:15;;;;;;;32.05;4.95;;;17.60;61.90;;;;;;4772488;30;20130;-68
2023/05/23 16:34:42;;;;;;;31.73;4.90;;;17.60;61.80;;;;;;4772200;30;20459;-69
2023/05/23 16:37:08;;;;;;;26.15;4.95;;;17.60;62.00;;;;;;4772543;30;20058;-71
2023/05/23 16:39:34;;;;;;;26.35;4.07;;;17.70;62.10;;;;;;4772325;30;20130;-70
2023/05/23 16:42:00;;;;;;;24.95;4.28;;;17.70;62.30;;;;;;4772728;30;20090;-68
2023/05/23 16:44:27;;;;;;;31.40;5.20;;;17.70;62.50;;;;;;4772318;30;20051;-70
2023/05/23 16:46:53;;;;;;;29.15;4.53;;;17.70;62.80;;;;;;4764370;30;20047;-66
2023/05/23 16:49:18;;;;;;;26.52;4.50;;;17.80;63.00;;;;;;4772163;30;20133;-66
2023/05/23 16:51:44;;;;;;;39.78;5.40;;;17.80;63.10;;;;;;4772698;30;20055;-67
2023/05/23 16:54:10;;;;;;;32.95;5.15;;;17.80;63.00;;;;;;4772588;30;20062;-68
2023/05/23 16:56:37;;;;;;;26.27;4.30;;;17.90;63.10;;;;;;4772444;30;20056;-66
2023/05/23 16:59:04;;;;;;;22.77;4.53;;;17.90;63.00;;;;;;4772174;30;20059;-66
2023/05/23 17:01:30;;;;;;;29.60;4.75;;;17.90;62.80;;;;;;4771936;30;20120;-68
2023/05/23 17:03:56;;;;;;;37.72;5.45;;;17.80;62.80;;;;;;4771816;30;20468;-67
2023/05/23 17:06:21;;;;;;;30.83;5.28;;;17.80;62.90;;;;;;4772227;30;20126;-68
2023/05/23 17:08:47;;;;;;;35.45;4.90;;;17.80;61.70;;;;;;4771443;30;20139;-67
2023/05/23 17:11:13;;;;;;;29.73;5.03;;;17.80;61.20;;;;;;4786277;30;20071;-66
2023/05/23 17:13:47;;;;;;;25.08;4.68;;;17.80;62.40;;;;;;4785483;30;20056;-68
2023/05/23 17:16:16;;;;;;;24.70;4.75;;;17.80;62.20;;;;;;4769049;30;20142;-69
2023/05/23 17:18:43;;;;;;;36.13;5.38;;;17.70;62.40;;;;;;4771702;30;20056;-67
2023/05/23 17:21:09;;;;;;;27.50;4.53;;;17.70;62.80;;;;;;4772197;30;20063;-67
2023/05/23 17:23:34;;;;;;;24.17;4.43;;;17.70;63.00;;;;;;4772210;30;20499;-68
2023/05/23 17:26:00;;;;;;;27.02;5.32;;;17.70;63.20;;;;;;4774011;30;20067;-67
2023/05/23 17:28:26;;;;;;;25.92;4.13;;;17.70;63.30;;;;;;4762325;30;20060;-67
2023/05/23 17:30:52;;;;;;;27.17;4.28;;;17.70;63.40;;;;;;4777861;30;20052;-68
2023/05/23 17:33:18;;;;;;;21.95;4.88;;;17.70;63.50;;;;;;4778032;30;20047;-67
2023/05/23 17:35:43;;;;;;;20.08;4.35;;;17.70;63.60;;;;;;4777537;30;20542;-69
2023/05/23 17:38:09;;;;;;;19.33;3.80;;;17.70;63.80;;;;;;4777142;30;20097;-68
2023/05/23 17:40:35;;;;;;;20.50;3.80;;;17.70;63.90;;;;;;4777349;30;20063;-67
2023/05/23 17:43:01;;;;;;;19.67;4.10;;;17.70;64.00;;;;;;4777984;30;20101;-67
2023/05/23 17:45:27;;;;;;;18.88;3.83;;;17.60;64.10;;;;;;4777909;30;20062;-67
2023/05/23 17:47:52;;;;;;;19.90;3.60;;;17.70;64.30;;;;;;4777746;30;20143;-68
2023/05/23 17:50:18;;;;;;;17.35;3.45;;;17.70;64.50;;;;;;4761766;30;20066;-68
2023/05/23 17:52:44;;;;;;;19.88;3.63;;;17.60;64.50;;;;;;4776983;30;20117;-67
2023/05/23 17:55:10;;;;;;;14.98;3.40;;;17.60;64.60;;;;;;4777951;30;20113;-70
2023/05/23 17:57:35;;;;;;;21.70;3.75;;;17.60;64.60;;;;;;4777615;30;20048;-67
2023/05/23 18:00:01;;;;;;;15.57;3.08;;;17.60;64.70;;;;;;4770918;30;20109;-67